Pocahontas, AR

8:20 AM CST on February 11, 2016 (GMT -0600)
Biggers | | Change Station
CLOSE
Current Station
Personal Weather Station
Location: Biggers, AR
Elevation: 285 ft
Nearby Weather Stations

Elev 285 ft 36.33 °N, 90.81 °W | Updated 9 minutes ago

Partly Cloudy
Partly Cloudy
26.8 °F
Feels Like 18 °F
N
8.9
Wind Variable Wind from East

Today
High -- | Low -- °F
--% Chance of Precip.
Yesterday
High -- | Low -- °F
Precip. -- in
Pressure 30.22 in
Visibility 2.5 miles
Clouds Clear
Windchill 18 °F
Dew Point 22 °F
Humidity 80%
Rainfall 0.00 in
Snow Depth Not available.
6:56 AM 5:40 PM
Waxing Crescent, 12% visible
METAR KARG 111415Z AUTO 05015KT 2 1/2SM CLR M03/M08 A3022 RMK AO1 VIS 1 1/4V5
Pressure 30.22 in
Visibility 2.5 miles
Clouds Clear
Windchill 18 °F
Dew Point 22 °F
Humidity 80%
Rainfall 0.00 in
Snow Depth Not available.
6:56 AM 5:40 PM
Waxing Crescent, 12% visible
METAR KARG 111415Z AUTO 05015KT 2 1/2SM CLR M03/M08 A3022 RMK AO1 VIS 1 1/4V5

10-Day Weather Forecast

Almanac

Astronomy

Feb. 11, 2016 Rise Set
Actual Time
Civil Twilight
Nautical Twilight
Astronomical Twilight
Moon
Length of Visible Light
Length of Day
Tomorrow will be .
, % of the Moon is Illuminated

Today's Extremes

State Highs State Lows

Community

WunderPhotos

Upload Photos

1,892,048 photos uploaded!

WunderBlog® & News

Nearby

Air Quality

  Air Quality AQ Index Pollutant
Not available.

Snow Depth

Station Depth Elevation

Earthquake Activity

City Distance Mag. Time & Date
Minimum magnitude displayed is 2.5.

Coastal Water Temperatures

Place Temperature

Stations

Nearby Weather Stations

Station Location Temp. Windchill Dew Point Humidity Wind Precip. Elev Updated Type
                   

Watches & Warnings

There are currently no watches in effect.